Time;durP1;ratioP1;P1;durP2;ratioP2;P2;SDS_P1;SDS_P2;PMS_P1;PMS_P2;Temp;Humidity;BMP_temperature;BMP_pressure;BME280_temperature;BME280_humidity;BME280_pressure;Samples;Min_cycle;Max_cycle;Signal;HPM_P1;HPM_P2
2021/04/06 04:49:00;;;;;;;29.50;13.60;;;;;;;4.77;60.23;97198.53;1662634;85;21234;-52
2021/04/06 04:51:30;;;;;;;28.15;14.03;;;;;;;4.82;59.87;97193.16;1661022;85;21210;-54
2021/04/06 04:53:59;;;;;;;36.33;14.45;;;;;;;4.88;59.35;97200.17;1642498;86;21196;-52
2021/04/06 04:56:29;;;;;;;37.80;15.18;;;;;;;4.92;59.02;97200.02;1664237;86;21213;-53
2021/04/06 04:59:06;;;;;;;31.35;14.80;;;;;;;4.96;58.90;97202.00;1667055;86;21307;-53
2021/04/06 05:01:36;;;;;;;33.92;15.38;;;;;;;5.01;58.94;97207.91;1667333;86;21185;-52
2021/04/06 05:04:06;;;;;;;31.40;15.58;;;;;;;5.04;59.70;97201.73;1660538;86;21151;-54
2021/04/06 05:06:35;;;;;;;35.45;17.20;;;;;;;5.09;59.01;97203.72;1664800;86;21217;-50
2021/04/06 05:09:05;;;;;;;42.03;21.55;;;;;;;5.13;58.75;97198.88;1643026;87;21210;-56
2021/04/06 05:11:35;;;;;;;40.52;22.10;;;;;;;5.19;58.97;97204.55;1666879;85;21177;-51
2021/04/06 05:14:07;;;;;;;42.15;22.50;;;;;;;5.26;58.65;97210.52;1657953;85;21142;-54
2021/04/06 05:16:36;;;;;;;37.05;20.52;;;;;;;5.32;58.32;97203.13;1652296;86;21218;-54
2021/04/06 05:19:06;;;;;;;40.05;19.20;;;;;;;5.45;57.98;97194.36;1660053;86;21578;-55
2021/04/06 05:21:35;;;;;;;34.95;19.30;;;;;;;5.60;57.67;97201.37;1660469;86;21632;-54
2021/04/06 05:24:07;;;;;;;36.17;19.10;;;;;;;5.77;57.46;97205.53;1654375;86;21173;-55
2021/04/06 05:26:36;;;;;;;37.00;19.48;;;;;;;5.96;57.00;97213.69;1646412;86;21205;-51
2021/04/06 05:29:07;;;;;;;40.17;18.90;;;;;;;6.10;56.54;97207.31;1639038;87;21165;-56
2021/04/06 05:31:39;;;;;;;31.23;19.17;;;;;;;6.23;56.05;97208.17;1663103;86;21308;-58
2021/04/06 05:34:10;;;;;;;41.37;21.15;;;;;;;6.39;56.01;97214.11;1673675;84;21165;-56
2021/04/06 05:36:38;;;;;;;35.80;18.48;;;;;;;6.58;55.40;97216.97;1645128;86;21304;-55
2021/04/06 05:39:09;;;;;;;34.90;17.80;;;;;;;6.81;55.46;97204.98;1655456;86;21347;-56
2021/04/06 05:41:44;;;;;;;34.60;17.30;;;;;;;7.09;55.08;97216.16;1669191;86;21181;-61
2021/04/06 05:44:14;;;;;;;34.45;16.15;;;;;;;7.33;54.06;97216.98;1657103;86;21173;-61
2021/04/06 05:46:47;;;;;;;32.55;15.58;;;;;;;7.50;53.34;97220.53;1632788;87;21222;-57
2021/04/06 05:49:18;;;;;;;;;;;;;;;7.68;52.80;97222.23;1618911;88;22187;-56
2021/04/06 05:51:47;;;;;;;32.88;14.33;;;;;;;7.80;51.99;97219.61;1621444;88;20218;-56
2021/04/06 05:54:18;;;;;;;32.13;14.68;;;;;;;7.83;51.60;97223.09;1635528;88;21202;-56
2021/04/06 05:56:48;;;;;;;32.20;15.05;;;;;;;7.89;51.51;97219.03;1613399;88;21199;-55
2021/04/06 05:59:17;;;;;;;29.75;15.83;;;;;;;7.99;51.39;97222.40;1614254;88;21162;-55
2021/04/06 06:01:48;;;;;;;28.57;15.03;;;;;;;8.08;51.19;97230.70;1628796;86;21764;-55
2021/04/06 06:04:18;;;;;;;31.10;14.73;;;;;;;8.19;50.67;97222.80;1633493;86;21198;-55
2021/04/06 06:06:48;;;;;;;30.43;15.30;;;;;;;8.34;50.52;97232.82;1629389;87;22486;-58
2021/04/06 06:09:33;;;;;;;27.82;14.25;;;;;;;8.50;50.04;97239.20;1629999;87;21214;-59
2021/04/06 06:12:08;;;;;;;31.07;15.05;;;;;;;8.63;49.59;97242.06;1636560;86;21308;-56
2021/04/06 06:14:41;;;;;;;34.35;16.42;;;;;;;8.76;49.38;97243.89;1632457;86;21745;-54
2021/04/06 06:17:19;;;;;;;33.48;16.50;;;;;;;8.89;49.08;97252.52;1621796;87;21665;-58
2021/04/06 06:19:51;;;;;;;31.48;19.50;;;;;;;9.01;48.78;97239.62;1630774;87;21135;-58
2021/04/06 06:22:24;;;;;;;37.67;17.82;;;;;;;9.12;48.30;97245.85;1636176;86;21784;-55
2021/04/06 06:25:09;;;;;;;33.80;17.57;;;;;;;9.25;48.23;97242.91;1620721;87;21618;-54
2021/04/06 06:27:44;;;;;;;37.40;19.45;;;;;;;9.48;47.87;97243.80;1624661;87;21183;-54
2021/04/06 06:30:38;;;;;;;56.50;30.68;;;;;;;9.72;47.70;97235.99;1625374;86;21198;-58
2021/04/06 06:33:29;;;;;;;42.05;20.43;;;;;;;9.97;47.30;97238.70;1627195;87;21203;-55
2021/04/06 06:36:12;;;;;;;46.28;19.45;;;;;;;10.19;46.74;97242.67;1619696;87;21186;-55
2021/04/06 06:38:43;;;;;;;29.52;16.05;;;;;;;10.34;45.94;97251.59;1599035;88;21173;-56
2021/04/06 06:41:17;;;;;;;27.17;14.70;;;;;;;10.49;45.37;97259.39;1630541;87;21192;-56
2021/04/06 06:43:55;;;;;;;27.58;14.98;;;;;;;10.61;44.92;97260.88;1627745;87;22074;-57
2021/04/06 06:46:31;;;;;;;29.87;14.33;;;;;;;10.77;44.62;97259.72;1624665;86;21276;-54
2021/04/06 06:49:04;;;;;;;25.88;14.35;;;;;;;10.92;44.21;97261.73;1653065;86;21174;-55
2021/04/06 06:51:37;;;;;;;26.23;13.85;;;;;;;11.03;43.84;97262.10;1657204;85;21620;-60
2021/04/06 06:54:08;;;;;;;27.22;13.68;;;;;;;11.14;43.48;97276.98;1661035;84;21199;-60
2021/04/06 06:56:40;;;;;;;28.77;13.80;;;;;;;11.19;42.96;97277.55;1612076;88;21162;-54
2021/04/06 06:59:09;;;;;;;24.07;13.72;;;;;;;11.19;42.96;97277.55;1603961;87;22695;-53
2021/04/06 07:01:41;;;;;;;25.95;13.98;;;;;;;11.25;42.60;97285.79;1656569;85;21773;-58
2021/04/06 07:04:16;;;;;;;34.85;14.53;;;;;;;11.25;42.60;97285.79;1607818;88;21185;-57
2021/04/06 07:06:47;;;;;;;32.75;15.48;;;;;;;11.25;42.49;97286.58;1632269;87;21629;-59
2021/04/06 07:09:30;;;;;;;35.40;18.60;;;;;;;11.21;42.50;97284.69;1627985;86;21345;-57
2021/04/06 07:12:05;;;;;;;54.80;17.52;;;;;;;11.21;42.67;97285.48;1653444;85;21210;-58
2021/04/06 07:14:35;;;;;;;48.83;16.05;;;;;;;11.10;42.42;97293.81;1642978;86;21199;-58
2021/04/06 07:17:06;;;;;;;50.88;17.98;;;;;;;11.02;42.72;97292.16;1668870;85;21182;-59
2021/04/06 07:19:38;;;;;;;34.23;14.43;;;;;;;10.90;42.76;97296.25;1660534;85;21589;-60
2021/04/06 07:22:09;;;;;;;24.55;13.45;;;;;;;10.77;42.86;97293.98;1666206;85;21596;-60
2021/04/06 07:24:41;;;;;;;28.35;13.50;;;;;;;10.64;43.15;97292.00;1644698;85;23303;-54
2021/04/06 07:27:13;;;;;;;24.43;12.30;;;;;;;10.52;43.64;97297.13;1665378;85;21396;-56
2021/04/06 07:29:43;;;;;;;29.65;15.28;;;;;;;10.42;43.98;97294.35;1650000;85;21186;-50
2021/04/06 07:32:14;;;;;;;24.55;13.45;;;;;;;10.32;44.38;97289.74;1657781;85;21190;-60
2021/04/06 07:34:43;;;;;;;23.40;13.13;;;;;;;10.24;44.41;97293.60;1658707;86;21202;-57
2021/04/06 07:37:13;;;;;;;28.93;13.77;;;;;;;10.11;44.72;97297.36;1662203;86;21190;-58
2021/04/06 07:39:42;;;;;;;27.30;13.80;;;;;;;10.01;45.11;97316.16;1663001;86;21186;-57
2021/04/06 07:42:13;;;;;;;26.17;12.93;;;;;;;9.95;45.55;97310.54;1637597;86;21676;-53
2021/04/06 07:44:42;;;;;;;27.98;13.10;;;;;;;9.94;46.13;97324.74;1647749;86;21222;-57
2021/04/06 07:47:11;;;;;;;30.05;14.13;;;;;;;9.82;46.77;97313.78;1648163;86;21325;-55
2021/04/06 07:49:42;;;;;;;27.32;14.28;;;;;;;9.62;47.81;97319.23;1649729;86;21210;-56
2021/04/06 07:52:17;;;;;;;29.02;14.35;;;;;;;9.26;49.23;97326.53;1661942;86;21210;-57
2021/04/06 07:54:53;;;;;;;26.23;15.65;;;;;;;9.08;50.15;97312.27;1659561;86;21198;-54
2021/04/06 07:57:42;;;;;;;27.17;15.20;;;;;;;8.89;50.82;97325.60;1659173;86;21192;-60
2021/04/06 08:00:13;;;;;;;28.10;14.40;;;;;;;8.79;51.23;97341.16;1659319;86;21247;-56
2021/04/06 08:02:44;;;;;;;28.20;14.40;;;;;;;8.67;52.16;97339.88;1640370;86;21338;-60
2021/04/06 08:05:18;;;;;;;27.35;14.10;;;;;;;8.57;52.70;97335.73;1659208;86;21237;-53
2021/04/06 08:07:47;;;;;;;23.73;14.75;;;;;;;8.38;53.12;97322.47;1658698;86;21591;-57
2021/04/06 08:10:28;;;;;;;27.20;13.85;;;;;;;8.15;54.16;97337.70;1659085;86;21305;-57
2021/04/06 08:12:59;;;;;;;24.50;14.03;;;;;;;8.02;55.12;97326.09;1640161;86;21361;-54
2021/04/06 08:15:33;;;;;;;27.85;15.45;;;;;;;7.87;56.37;97335.23;1614014;88;22404;-56
2021/04/06 08:18:04;;;;;;;32.98;18.15;;;;;;;7.76;57.66;97339.95;1634881;87;21326;-56
2021/04/06 08:20:40;;;;;;;28.10;15.55;;;;;;;7.61;58.53;97325.94;1628460;86;21162;-58
2021/04/06 08:23:14;;;;;;;31.12;14.75;;;;;;;7.45;59.48;97349.70;1635326;86;21157;-57
2021/04/06 08:25:49;;;;;;;29.48;15.65;;;;;;;7.38;60.54;97356.84;1636828;86;21236;-60
2021/04/06 08:28:34;;;;;;;38.83;20.27;;;;;;;7.44;60.78;97358.56;1593040;88;21710;-54
2021/04/06 08:31:29;;;;;;;32.45;17.92;;;;;;;7.51;63.11;97358.47;1643711;86;21252;-57
2021/04/06 08:34:30;;;;;;;29.27;15.80;;;;;;;7.65;63.52;97359.09;1634572;88;21239;-56
2021/04/06 08:37:11;;;;;;;25.60;13.10;;;;;;;7.68;63.95;97361.24;1611981;88;21597;-59
2021/04/06 08:39:41;;;;;;;28.87;13.25;;;;;;;7.66;63.60;97357.55;1619259;88;21335;-59
2021/04/06 08:42:14;;;;;;;37.75;22.17;;;;;;;7.38;64.02;97366.53;1661495;85;21205;-58
2021/04/06 08:44:45;;;;;;;32.98;15.70;;;;;;;7.11;65.27;97373.94;1661903;85;21275;-58
2021/04/06 08:47:38;;;;;;;26.42;14.73;;;;;;;6.93;68.24;97358.54;1661029;85;21201;-54
2021/04/06 08:50:11;;;;;;;23.12;10.50;;;;;;;6.56;70.03;97368.25;1649788;87;21158;-59
2021/04/06 08:52:41;;;;;;;26.70;12.75;;;;;;;6.24;72.57;97362.33;1634346;87;21263;-57
2021/04/06 08:55:14;;;;;;;23.70;12.47;;;;;;;5.98;75.20;97373.84;1661716;85;21162;-57
2021/04/06 08:57:45;;;;;;;21.80;9.93;;;;;;;5.82;76.23;97374.34;1647781;86;21170;-60
2021/04/06 09:00:25;;;;;;;18.52;8.25;;;;;;;5.83;78.32;97361.56;1818680;77;23475;-57
2021/04/06 09:03:05;;;;;;;11.95;6.37;;;;;;;5.71;78.30;97385.48;1737439;81;21653;-55
2021/04/06 09:05:36;;;;;;;13.62;5.90;;;;;;;5.55;78.59;97392.02;1760526;81;21181;-55
2021/04/06 09:08:05;;;;;;;14.80;5.70;;;;;;;5.48;79.94;97384.23;1773231;79;21189;-57
2021/04/06 09:10:39;;;;;;;12.15;5.17;;;;;;;5.53;80.15;97390.14;1752013;80;21554;-56
2021/04/06 09:13:09;;;;;;;13.88;5.22;;;;;;;5.51;79.75;97386.44;1781647;80;21174;-57
2021/04/06 09:15:38;;;;;;;17.77;7.10;;;;;;;5.45;81.09;97383.84;1781768;80;21193;-54
2021/04/06 09:18:09;;;;;;;10.35;4.75;;;;;;;5.46;82.16;97400.64;1751336;80;21194;-55
2021/04/06 09:20:38;;;;;;;6.95;3.65;;;;;;;5.42;82.32;97366.78;1661013;84;21336;-56
2021/04/06 09:23:08;;;;;;;6.45;3.08;;;;;;;5.31;83.23;97391.77;1727816;82;21518;-55
2021/04/06 09:25:37;;;;;;;7.20;3.67;;;;;;;5.20;83.59;97413.33;1707611;84;21182;-54
2021/04/06 09:28:10;;;;;;;8.78;4.58;;;;;;;4.91;84.40;97385.92;1735652;82;22274;-59
2021/04/06 09:30:44;;;;;;;6.22;2.92;;;;;;;4.71;86.83;97410.02;1734893;83;21155;-50
2021/04/06 09:33:18;;;;;;;4.00;3.10;;;;;;;4.48;85.03;97381.77;1737015;82;21523;-60
2021/04/06 09:35:52;;;;;;;8.33;4.60;;;;;;;4.29;87.70;97406.87;1699617;83;21169;-61
2021/04/06 09:38:23;;;;;;;8.80;4.75;;;;;;;4.17;90.30;97403.27;1693848;83;21198;-58
2021/04/06 09:40:54;;;;;;;5.58;3.92;;;;;;;4.21;93.42;97397.96;1692102;83;21226;-58
2021/04/06 09:43:25;;;;;;;6.92;4.58;;;;;;;4.23;93.05;97386.81;1700181;82;21569;-58
2021/04/06 09:45:55;;;;;;;7.13;4.50;;;;;;;4.17;93.75;97359.73;1700905;83;21182;-58
2021/04/06 09:48:24;;;;;;;8.85;3.90;;;;;;;4.03;95.24;97389.95;1691909;85;21360;-56
2021/04/06 09:51:01;;;;;;;8.60;3.60;;;;;;;3.93;94.42;97405.99;1691949;84;21867;-58
2021/04/06 09:53:33;;;;;;;7.57;3.63;;;;;;;3.87;94.19;97374.21;1692139;85;21728;-62
2021/04/06 09:56:04;;;;;;;5.00;3.55;;;;;;;3.81;95.91;97390.15;1697693;84;21191;-57
2021/04/06 09:58:37;;;;;;;6.70;4.00;;;;;;;3.89;95.71;97351.34;1703679;84;21432;-53
2021/04/06 10:01:27;;;;;;;5.70;4.17;;;;;;;3.96;93.81;97346.94;1673490;85;21184;-59
2021/04/06 10:04:00;;;;;;;3.87;3.15;;;;;;;3.94;93.56;97371.09;1686397;85;21311;-58
2021/04/06 10:06:42;;;;;;;2.80;2.10;;;;;;;3.89;95.24;97363.06;1685874;84;21346;-59
2021/04/06 10:09:21;;;;;;;3.95;2.27;;;;;;;3.96;94.30;97359.98;1752117;82;21315;-58
2021/04/06 10:11:50;;;;;;;3.40;2.60;;;;;;;3.98;93.94;97365.28;1752751;81;21215;-57
2021/04/06 10:14:21;;;;;;;;;;;;;;;4.00;95.51;97362.46;1755679;82;21155;-57
2021/04/06 10:17:01;;;;;;;6.17;3.12;;;;;;;4.12;96.16;97379.59;1756253;81;20187;-55
2021/04/06 10:19:32;;;;;;;6.00;3.58;;;;;;;4.31;94.41;97383.20;1771324;81;21268;-59
2021/04/06 10:22:14;;;;;;;5.58;3.62;;;;;;;4.41;93.84;97389.58;1745577;82;21517;-56
2021/04/06 10:24:49;;;;;;;3.67;2.87;;;;;;;4.35;92.01;97357.79;1752535;81;21543;-54
2021/04/06 10:27:25;;;;;;;7.60;4.20;;;;;;;4.21;89.81;97385.72;1753054;81;21148;-60
2021/04/06 10:29:59;;;;;;;14.23;6.33;;;;;;;4.12;90.57;97384.31;1743494;81;21218;-55
2021/04/06 10:32:33;;;;;;;6.95;3.60;;;;;;;4.17;90.84;97390.23;1731334;81;21155;-57
2021/04/06 10:35:16;;;;;;;6.15;3.30;;;;;;;4.28;89.80;97357.52;1730338;81;21186;-61
2021/04/06 10:37:52;;;;;;;6.77;3.20;;;;;;;4.35;89.02;97376.55;1731485;82;21167;-59
2021/04/06 10:40:29;;;;;;;8.45;4.50;;;;;;;4.42;87.43;97412.59;1731043;83;21296;-59
2021/04/06 10:43:04;;;;;;;6.53;4.12;;;;;;;4.41;86.61;97374.43;1731598;83;21198;-63
2021/04/06 10:45:38;;;;;;;8.98;3.72;;;;;;;4.42;87.61;97357.80;1749102;81;21206;-52
2021/04/06 10:48:19;;;;;;;3.62;2.50;;;;;;;4.49;87.97;97356.77;1752650;82;21227;-58
2021/04/06 10:50:59;;;;;;;15.03;5.92;;;;;;;4.61;86.73;97355.63;1754099;81;21154;-60
2021/04/06 10:53:47;;;;;;;16.60;7.33;;;;;;;4.61;85.79;97358.73;1736594;81;21577;-54
2021/04/06 10:56:29;;;;;;;3.37;2.90;;;;;;;4.71;87.61;97352.58;1753492;81;21164;-55
2021/04/06 10:59:05;;;;;;;4.95;2.80;;;;;;;4.80;84.67;97361.26;1753361;81;21776;-56
2021/04/06 11:01:47;;;;;;;4.40;2.65;;;;;;;4.89;85.48;97351.40;1733564;82;21189;-59
2021/04/06 11:04:22;;;;;;;3.12;2.22;;;;;;;5.01;84.17;97357.56;1725157;82;21189;-55
2021/04/06 11:07:01;;;;;;;2.40;2.08;;;;;;;5.02;82.07;97374.83;1725931;82;21154;-54
2021/04/06 11:09:49;;;;;;;24.98;13.93;;;;;;;5.00;82.79;97343.41;1733951;82;21271;-54
2021/04/06 11:12:19;;;;;;;4.92;3.02;;;;;;;4.99;80.83;97346.53;1732451;82;21152;-52
2021/04/06 11:14:49;;;;;;;10.43;5.70;;;;;;;4.89;80.33;97347.98;1732029;82;21105;-66
2021/04/06 11:17:18;;;;;;;10.80;5.10;;;;;;;4.77;81.85;97335.59;1734778;82;21200;-53
2021/04/06 11:19:48;;;;;;;7.42;3.60;;;;;;;4.75;82.71;97331.56;1732068;82;21200;-53
2021/04/06 11:22:19;;;;;;;4.72;2.75;;;;;;;4.74;82.74;97333.37;1732288;82;21121;-56
2021/04/06 11:24:51;;;;;;;3.37;2.37;;;;;;;4.78;82.80;97346.32;1734283;82;21663;-51
2021/04/06 11:27:20;;;;;;;3.00;2.05;;;;;;;4.80;82.94;97334.36;1723485;82;21154;-50
2021/04/06 11:29:50;;;;;;;4.50;2.47;;;;;;;4.84;82.54;97341.28;1735699;82;21135;-58
2021/04/06 11:32:21;;;;;;;4.10;2.77;;;;;;;4.86;83.08;97345.27;1735201;82;21653;-55
2021/04/06 11:34:50;;;;;;;8.70;3.70;;;;;;;4.90;83.42;97338.63;1736528;82;21291;-54
2021/04/06 11:37:20;;;;;;;17.80;6.50;;;;;;;4.90;82.03;97349.08;1684842;82;21585;-53
2021/04/06 11:39:49;;;;;;;12.68;4.60;;;;;;;4.85;82.70;97349.41;1743591;82;21374;-59
2021/04/06 11:42:18;;;;;;;10.90;4.22;;;;;;;4.93;83.38;97342.15;1745641;82;21169;-60
2021/04/06 11:44:48;;;;;;;27.60;11.65;;;;;;;5.02;82.40;97333.05;1740080;82;21140;-60
2021/04/06 11:47:17;;;;;;;4.15;2.90;;;;;;;5.06;82.67;97324.30;1715216;84;21361;-56
2021/04/06 11:49:48;;;;;;;;;;;;;;;5.12;82.27;97327.88;1718067;84;21223;-57
2021/04/06 11:52:18;;;;;;;3.58;2.75;;;;;;;5.10;81.86;97324.66;1719248;82;20182;-48
2021/04/06 11:54:49;;;;;;;5.77;3.63;;;;;;;5.04;82.46;97315.34;1728678;82;21133;-56
2021/04/06 11:57:18;;;;;;;4.55;2.83;;;;;;;4.94;83.00;97316.33;1730471;82;21177;-58
2021/04/06 11:59:47;;;;;;;5.75;3.83;;;;;;;4.81;83.13;97308.54;1734289;81;21150;-55
2021/04/06 12:02:18;;;;;;;6.00;3.52;;;;;;;4.72;84.52;97311.91;1752970;81;21138;-60
2021/04/06 12:04:53;;;;;;;3.72;2.87;;;;;;;4.68;84.00;97320.36;1719339;83;21159;-57
2021/04/06 12:07:22;;;;;;;7.15;3.50;;;;;;;4.64;83.83;97318.66;1743621;81;21169;-59
2021/04/06 12:09:52;;;;;;;4.85;2.77;;;;;;;4.67;83.72;97322.67;1751093;81;21162;-52
2021/04/06 12:12:22;;;;;;;5.75;3.08;;;;;;;4.70;83.29;97311.33;1750868;81;21324;-56
2021/04/06 12:14:52;;;;;;;10.65;5.10;;;;;;;4.76;82.75;97305.27;1752181;81;21183;-54
2021/04/06 12:17:22;;;;;;;14.03;5.97;;;;;;;4.79;82.19;97306.66;1750362;81;21197;-51
2021/04/06 12:19:53;;;;;;;10.60;4.25;;;;;;;4.83;82.64;97293.48;1751287;81;21149;-57
2021/04/06 12:22:23;;;;;;;6.55;3.15;;;;;;;4.95;81.79;97297.54;1742340;81;21209;-59
2021/04/06 12:24:54;;;;;;;7.65;4.58;;;;;;;5.02;80.84;97293.87;1753113;81;22186;-56
2021/04/06 12:27:25;;;;;;;9.23;4.67;;;;;;;5.00;80.40;97304.25;1745558;81;21247;-58
2021/04/06 12:29:56;;;;;;;9.90;4.30;;;;;;;4.94;80.82;97290.72;1729751;81;21174;-60
2021/04/06 12:32:28;;;;;;;6.50;3.60;;;;;;;4.95;81.35;97306.17;1752325;81;21887;-59
2021/04/06 12:35:13;;;;;;;6.67;3.40;;;;;;;4.93;81.01;97303.45;1728236;81;21273;-59
2021/04/06 12:37:43;;;;;;;6.47;4.05;;;;;;;4.80;80.99;97288.16;1750614;81;21157;-55
2021/04/06 12:40:13;;;;;;;5.03;3.27;;;;;;;4.70;81.79;97291.75;1750884;81;21166;-56
2021/04/06 12:42:43;;;;;;;18.87;7.10;;;;;;;4.68;82.07;97285.12;1745527;81;21189;-53
2021/04/06 12:45:16;;;;;;;6.37;3.87;;;;;;;4.65;82.92;97277.72;1749419;81;21184;-59
2021/04/06 12:47:46;;;;;;;14.13;6.37;;;;;;;4.65;82.85;97275.91;1754702;81;21656;-52
2021/04/06 12:50:16;;;;;;;13.78;6.80;;;;;;;4.62;83.32;97278.92;1741427;81;21300;-55
2021/04/06 12:52:45;;;;;;;7.47;3.60;;;;;;;4.69;83.72;97277.58;1740732;82;21263;-58
2021/04/06 12:55:14;;;;;;;5.53;3.12;;;;;;;4.77;82.99;97280.77;1739231;81;21177;-54
2021/04/06 12:57:44;;;;;;;4.10;2.92;;;;;;;4.80;82.60;97277.72;1731970;81;21130;-55
2021/04/06 13:00:16;;;;;;;12.40;4.80;;;;;;;4.79;82.38;97277.94;1739402;81;21174;-56
2021/04/06 13:02:45;;;;;;;8.03;3.92;;;;;;;4.76;82.42;97272.64;1744710;82;21150;-56
2021/04/06 13:05:16;;;;;;;6.50;3.65;;;;;;;4.76;82.38;97267.92;1741836;81;21122;-57
2021/04/06 13:07:45;;;;;;;14.38;5.30;;;;;;;4.73;81.73;97276.16;1745088;81;21662;-57
2021/04/06 13:10:18;;;;;;;10.32;4.10;;;;;;;4.66;82.27;97275.40;1749529;81;21170;-57
2021/04/06 13:12:48;;;;;;;14.58;9.30;;;;;;;4.61;83.45;97270.00;1752079;81;21133;-56
2021/04/06 13:15:18;;;;;;;8.93;5.03;;;;;;;4.61;83.34;97273.91;1743766;81;21567;-55
2021/04/06 13:17:50;;;;;;;4.75;3.87;;;;;;;4.64;83.18;97272.98;1748097;81;21321;-55
2021/04/06 13:20:21;;;;;;;11.73;4.87;;;;;;;4.67;83.45;97278.30;1737074;82;21183;-55
2021/04/06 13:22:50;;;;;;;7.28;4.00;;;;;;;4.66;83.25;97270.98;1738834;82;21131;-56
2021/04/06 13:25:20;;;;;;;10.08;4.78;;;;;;;4.60;83.30;97281.45;1736940;81;21162;-55
2021/04/06 13:27:51;;;;;;;22.17;11.08;;;;;;;4.56;83.92;97284.97;1713261;83;21162;-56
2021/04/06 13:30:23;;;;;;;11.03;5.58;;;;;;;4.51;84.41;97266.52;1731473;82;21143;-58
2021/04/06 13:32:52;;;;;;;53.00;29.30;;;;;;;4.55;84.86;97273.44;1731184;83;21342;-54
2021/04/06 13:35:22;;;;;;;90.30;45.00;;;;;;;4.56;84.80;97268.52;1751151;81;21273;-56
2021/04/06 13:37:52;;;;;;;19.12;8.80;;;;;;;4.49;84.80;97265.43;1736310;82;21312;-55
2021/04/06 13:40:23;;;;;;;141.00;79.07;;;;;;;4.47;85.10;97261.41;1713202;83;21191;-54
2021/04/06 13:42:52;;;;;;;78.50;41.07;;;;;;;4.47;85.63;97247.89;1732118;82;21193;-55
2021/04/06 13:45:24;;;;;;;17.70;6.90;;;;;;;4.50;85.67;97255.80;1733304;81;22050;-56
2021/04/06 13:47:55;;;;;;;12.73;5.22;;;;;;;4.46;85.91;97247.56;1762072;81;21511;-56
2021/04/06 13:50:24;;;;;;;13.72;6.60;;;;;;;4.44;86.63;97247.49;1763369;81;21173;-56
2021/04/06 13:52:54;;;;;;;88.60;49.27;;;;;;;4.39;86.78;97240.78;1745231;81;21741;-56
2021/04/06 13:55:23;;;;;;;68.00;29.85;;;;;;;4.35;87.53;97239.59;1738510;81;21185;-52
2021/04/06 13:57:53;;;;;;;186.18;86.40;;;;;;;4.37;87.59;97236.29;1752948;81;21213;-50
